sensor_id;sensor_type;location;lat;lon;timestamp;pressure;altitude;pressure_sealevel;temperature;humidity
81835;BME280;71272;52.166;4.498;2023-09-19T00:00:48;100728.34;;;14.94;79.32
81835;BME280;71272;52.166;4.498;2023-09-19T00:03:18;100742.59;;;15.06;78.32
81835;BME280;71272;52.166;4.498;2023-09-19T00:05:43;100736.16;;;15.06;78.84
81835;BME280;71272;52.166;4.498;2023-09-19T00:08:13;100746.34;;;15.20;77.41
81835;BME280;71272;52.166;4.498;2023-09-19T00:10:38;100740.69;;;15.20;76.07
81835;BME280;71272;52.166;4.498;2023-09-19T00:13:08;100734.41;;;15.12;75.08
81835;BME280;71272;52.166;4.498;2023-09-19T00:15:40;100760.81;;;15.22;75.14
81835;BME280;71272;52.166;4.498;2023-09-19T00:18:08;100740.69;;;15.20;75.71
81835;BME280;71272;52.166;4.498;2023-09-19T00:20:36;100742.16;;;15.08;76.43
81835;BME280;71272;52.166;4.498;2023-09-19T00:23:02;100751.00;;;15.10;77.41
81835;BME280;71272;52.166;4.498;2023-09-19T00:25:35;100745.47;;;15.03;78.40
81835;BME280;71272;52.166;4.498;2023-09-19T00:28:01;100762.19;;;15.14;80.23
81835;BME280;71272;52.166;4.498;2023-09-19T00:30:27;100757.78;;;15.13;81.11
81835;BME280;71272;52.166;4.498;2023-09-19T00:32:53;100770.44;;;15.24;80.63
81835;BME280;71272;52.166;4.498;2023-09-19T00:35:18;100757.47;;;15.27;79.43
81835;BME280;71272;52.166;4.498;2023-09-19T00:37:47;100767.09;;;15.29;79.47
81835;BME280;71272;52.166;4.498;2023-09-19T00:40:13;100751.00;;;15.10;80.74
81835;BME280;71272;52.166;4.498;2023-09-19T00:42:42;100755.69;;;15.17;81.08
81835;BME280;71272;52.166;4.498;2023-09-19T00:45:09;100757.94;;;15.25;80.59
81835;BME280;71272;52.166;4.498;2023-09-19T00:47:43;100748.56;;;15.28;80.66
81835;BME280;71272;52.166;4.498;2023-09-19T00:50:11;100746.13;;;15.30;80.92
81835;BME280;71272;52.166;4.498;2023-09-19T00:52:40;100759.56;;;15.43;80.51
81835;BME280;71272;52.166;4.498;2023-09-19T00:55:09;100751.59;;;15.38;81.03
81835;BME280;71272;52.166;4.498;2023-09-19T00:57:38;100768.41;;;15.45;81.35
81835;BME280;71272;52.166;4.498;2023-09-19T01:00:09;100754.16;;;15.48;80.93
81835;BME280;71272;52.166;4.498;2023-09-19T01:02:41;100762.13;;;15.53;80.81
81835;BME280;71272;52.166;4.498;2023-09-19T01:05:08;100776.13;;;15.61;80.90
81835;BME280;71272;52.166;4.498;2023-09-19T01:07:36;100768.16;;;15.56;81.36
81835;BME280;71272;52.166;4.498;2023-09-19T01:10:07;100765.66;;;15.58;82.60
81835;BME280;71272;52.166;4.498;2023-09-19T01:18:38;100784.66;;;15.57;82.84
81835;BME280;71272;52.166;4.498;2023-09-19T01:21:14;100755.66;;;15.37;82.27
81835;BME280;71272;52.166;4.498;2023-09-19T01:26:43;100776.78;;;15.48;81.78
81835;BME280;71272;52.166;4.498;2023-09-19T01:29:44;100779.47;;;15.56;82.46
81835;BME280;71272;52.166;4.498;2023-09-19T01:32:13;100789.69;;;15.66;82.48
81835;BME280;71272;52.166;4.498;2023-09-19T01:37:13;100770.97;;;15.56;85.33
81835;BME280;71272;52.166;4.498;2023-09-19T01:39:40;100777.16;;;15.50;87.02
81835;BME280;71272;52.166;4.498;2023-09-19T01:42:13;100790.16;;;15.64;83.81
81835;BME280;71272;52.166;4.498;2023-09-19T01:47:33;100779.59;;;15.48;84.44
81835;BME280;71272;52.166;4.498;2023-09-19T01:50:17;100791.47;;;15.60;84.65
81835;BME280;71272;52.166;4.498;2023-09-19T01:52:56;100774.22;;;15.54;85.60
81835;BME280;71272;52.166;4.498;2023-09-19T01:55:23;100770.34;;;15.48;88.03
81835;BME280;71272;52.166;4.498;2023-09-19T01:58:00;100758.03;;;15.38;87.58
81835;BME280;71272;52.166;4.498;2023-09-19T02:00:27;100766.16;;;15.36;87.99
81835;BME280;71272;52.166;4.498;2023-09-19T02:02:57;100764.66;;;15.31;87.32
81835;BME280;71272;52.166;4.498;2023-09-19T02:05:25;100784.56;;;15.44;86.17
81835;BME280;71272;52.166;4.498;2023-09-19T02:07:52;100783.31;;;15.45;86.36
81835;BME280;71272;52.166;4.498;2023-09-19T02:10:21;100780.63;;;15.38;86.36
81835;BME280;71272;52.166;4.498;2023-09-19T02:12:47;100791.50;;;15.40;86.56
81835;BME280;71272;52.166;4.498;2023-09-19T02:15:13;100780.72;;;15.35;86.17
81835;BME280;71272;52.166;4.498;2023-09-19T02:17:41;100784.84;;;15.30;86.46
81835;BME280;71272;52.166;4.498;2023-09-19T02:20:08;100767.22;;;15.06;87.29
81835;BME280;71272;52.166;4.498;2023-09-19T02:22:35;100793.13;;;15.21;86.68
81835;BME280;71272;52.166;4.498;2023-09-19T02:25:01;100793.84;;;15.25;85.49
81835;BME280;71272;52.166;4.498;2023-09-19T02:27:28;100797.41;;;15.29;84.67
81835;BME280;71272;52.166;4.498;2023-09-19T02:29:53;100797.91;;;15.24;84.49
81835;BME280;71272;52.166;4.498;2023-09-19T02:32:25;100810.78;;;15.25;85.29
81835;BME280;71272;52.166;4.498;2023-09-19T02:34:53;100781.75;;;15.24;83.92
81835;BME280;71272;52.166;4.498;2023-09-19T02:37:20;100805.78;;;15.32;83.58
81835;BME280;71272;52.166;4.498;2023-09-19T02:39:46;100789.06;;;15.22;84.13
81835;BME280;71272;52.166;4.498;2023-09-19T02:42:15;100776.19;;;15.21;83.87
81835;BME280;71272;52.166;4.498;2023-09-19T02:44:40;100777.72;;;15.25;83.33
81835;BME280;71272;52.166;4.498;2023-09-19T02:47:06;100780.16;;;15.23;84.00
81835;BME280;71272;52.166;4.498;2023-09-19T02:49:32;100798.41;;;15.39;83.72
81835;BME280;71272;52.166;4.498;2023-09-19T02:51:57;100784.72;;;15.37;84.41
81835;BME280;71272;52.166;4.498;2023-09-19T02:54:25;100785.41;;;15.41;83.96
81835;BME280;71272;52.166;4.498;2023-09-19T02:56:51;100781.91;;;15.53;82.62
81835;BME280;71272;52.166;4.498;2023-09-19T02:59:16;100802.13;;;15.52;82.81
81835;BME280;71272;52.166;4.498;2023-09-19T03:01:44;100797.81;;;15.47;83.22
81835;BME280;71272;52.166;4.498;2023-09-19T03:04:14;100790.91;;;15.48;83.74
81835;BME280;71272;52.166;4.498;2023-09-19T03:06:45;100784.72;;;15.37;83.53
81835;BME280;71272;52.166;4.498;2023-09-19T03:09:10;100794.19;;;15.47;82.26
81835;BME280;71272;52.166;4.498;2023-09-19T03:11:36;100782.81;;;15.50;82.60
81835;BME280;71272;52.166;4.498;2023-09-19T03:14:02;100790.94;;;15.65;82.48
81835;BME280;71272;52.166;4.498;2023-09-19T03:16:28;100776.53;;;15.59;81.97
81835;BME280;71272;52.166;4.498;2023-09-19T03:18:53;100784.00;;;15.69;81.80
81835;BME280;71272;52.166;4.498;2023-09-19T03:21:18;100788.69;;;15.76;82.53
81835;BME280;71272;52.166;4.498;2023-09-19T03:27:11;100784.38;;;15.71;84.60
81835;BME280;71272;52.166;4.498;2023-09-19T03:29:42;100791.81;;;15.62;84.67
81835;BME280;71272;52.166;4.498;2023-09-19T03:32:08;100776.41;;;15.46;84.06
81835;BME280;71272;52.166;4.498;2023-09-19T03:34:37;100788.25;;;15.41;84.24
81835;BME280;71272;52.166;4.498;2023-09-19T03:37:08;100797.34;;;15.49;83.86
81835;BME280;71272;52.166;4.498;2023-09-19T03:39:34;100803.81;;;15.49;83.49
81835;BME280;71272;52.166;4.498;2023-09-19T03:42:03;100800.88;;;15.37;83.66
81835;BME280;71272;52.166;4.498;2023-09-19T03:47:51;100815.94;;;15.30;83.69
81835;BME280;71272;52.166;4.498;2023-09-19T03:50:16;100794.72;;;15.22;83.93
81835;BME280;71272;52.166;4.498;2023-09-19T03:56:04;100811.66;;;15.42;83.81
81835;BME280;71272;52.166;4.498;2023-09-19T04:01:54;100795.28;;;15.33;81.88
81835;BME280;71272;52.166;4.498;2023-09-19T04:04:22;100830.94;;;15.47;81.91
81835;BME280;71272;52.166;4.498;2023-09-19T04:10:11;100823.53;;;15.33;82.81
81835;BME280;71272;52.166;4.498;2023-09-19T04:12:37;100814.94;;;15.20;82.21
81835;BME280;71272;52.166;4.498;2023-09-19T04:15:07;100827.53;;;15.16;83.24
81835;BME280;71272;52.166;4.498;2023-09-19T04:17:33;100821.38;;;15.21;83.75
81835;BME280;71272;52.166;4.498;2023-09-19T04:19:59;100809.22;;;15.24;83.22
81835;BME280;71272;52.166;4.498;2023-09-19T04:25:46;100829.78;;;15.44;83.03
81835;BME280;71272;52.166;4.498;2023-09-19T04:28:12;100816.44;;;15.45;81.65
81835;BME280;71272;52.166;4.498;2023-09-19T04:34:01;100843.78;;;15.31;83.77
81835;BME280;71272;52.166;4.498;2023-09-19T04:36:30;100835.00;;;15.26;83.21
81835;BME280;71272;52.166;4.498;2023-09-19T04:38:55;100837.75;;;15.29;82.17
81835;BME280;71272;52.166;4.498;2023-09-19T04:41:21;100831.81;;;15.24;81.23
81835;BME280;71272;52.166;4.498;2023-09-19T04:43:47;100845.00;;;15.30;81.35
81835;BME280;71272;52.166;4.498;2023-09-19T04:46:15;100843.13;;;15.24;81.42
81835;BME280;71272;52.166;4.498;2023-09-19T04:48:40;100825.59;;;15.13;82.24
81835;BME280;71272;52.166;4.498;2023-09-19T04:51:06;100827.13;;;15.17;82.57
81835;BME280;71272;52.166;4.498;2023-09-19T04:53:32;100824.28;;;15.17;82.35
81835;BME280;71272;52.166;4.498;2023-09-19T04:55:57;100843.47;;;15.26;82.89
81835;BME280;71272;52.166;4.498;2023-09-19T04:58:23;100829.00;;;15.24;82.36
81835;BME280;71272;52.166;4.498;2023-09-19T05:00:49;100854.19;;;15.35;81.88
81835;BME280;71272;52.166;4.498;2023-09-19T05:03:16;100836.59;;;15.27;81.55
81835;BME280;71272;52.166;4.498;2023-09-19T05:05:42;100855.34;;;15.37;81.68
81835;BME280;71272;52.166;4.498;2023-09-19T05:08:08;100819.81;;;15.20;82.30
81835;BME280;71272;52.166;4.498;2023-09-19T05:10:35;100844.66;;;15.28;82.94
81835;BME280;71272;52.166;4.498;2023-09-19T05:13:06;100832.69;;;15.21;83.60
81835;BME280;71272;52.166;4.498;2023-09-19T05:15:33;100816.25;;;15.16;83.50
81835;BME280;71272;52.166;4.498;2023-09-19T05:17:58;100827.19;;;15.14;84.65
81835;BME280;71272;52.166;4.498;2023-09-19T05:20:25;100834.72;;;15.20;84.93
81835;BME280;71272;52.166;4.498;2023-09-19T05:23:07;100814.44;;;15.05;85.47
81835;BME280;71272;52.166;4.498;2023-09-19T05:25:35;100843.69;;;15.15;85.34
81835;BME280;71272;52.166;4.498;2023-09-19T05:28:09;100844.94;;;15.14;86.05
81835;BME280;71272;52.166;4.498;2023-09-19T05:30:35;100837.75;;;15.09;86.24
81835;BME280;71272;52.166;4.498;2023-09-19T05:33:05;100837.41;;;15.07;87.02
81835;BME280;71272;52.166;4.498;2023-09-19T05:35:31;100846.94;;;15.14;87.00
81835;BME280;71272;52.166;4.498;2023-09-19T05:37:57;100846.31;;;15.26;85.34
81835;BME280;71272;52.166;4.498;2023-09-19T05:40:24;100833.41;;;15.25;85.84
81835;BME280;71272;52.166;4.498;2023-09-19T05:42:53;100843.03;;;15.27;85.20
81835;BME280;71272;52.166;4.498;2023-09-19T05:45:21;100839.03;;;15.25;86.02
81835;BME280;71272;52.166;4.498;2023-09-19T05:47:51;100846.31;;;15.26;86.22
81835;BME280;71272;52.166;4.498;2023-09-19T05:50:21;100839.88;;;15.25;87.55
81835;BME280;71272;52.166;4.498;2023-09-19T05:52:53;100858.88;;;15.41;87.00
81835;BME280;71272;52.166;4.498;2023-09-19T05:55:19;100855.34;;;15.37;86.67
81835;BME280;71272;52.166;4.498;2023-09-19T05:57:49;100846.00;;;15.40;86.39
81835;BME280;71272;52.166;4.498;2023-09-19T06:00:16;100856.66;;;15.52;86.83
81835;BME280;71272;52.166;4.498;2023-09-19T06:02:43;100850.34;;;15.45;87.66
81835;BME280;71272;52.166;4.498;2023-09-19T06:05:10;100856.84;;;15.62;87.50
81835;BME280;71272;52.166;4.498;2023-09-19T06:07:37;100859.94;;;15.67;87.88
81835;BME280;71272;52.166;4.498;2023-09-19T06:10:05;100842.28;;;15.63;86.14
81835;BME280;71272;52.166;4.498;2023-09-19T06:12:35;100850.91;;;15.76;85.23
81835;BME280;71272;52.166;4.498;2023-09-19T06:15:06;100838.66;;;15.83;83.70
81835;BME280;71272;52.166;4.498;2023-09-19T06:17:35;100866.06;;;16.02;82.87
81835;BME280;71272;52.166;4.498;2023-09-19T06:20:05;100864.72;;;16.07;83.03
81835;BME280;71272;52.166;4.498;2023-09-19T06:22:36;100866.75;;;16.06;83.05
81835;BME280;71272;52.166;4.498;2023-09-19T06:25:06;100879.59;;;16.11;83.15
81835;BME280;71272;52.166;4.498;2023-09-19T06:27:34;100864.13;;;15.99;80.98
81835;BME280;71272;52.166;4.498;2023-09-19T06:30:01;100882.28;;;16.18;80.07
81835;BME280;71272;52.166;4.498;2023-09-19T06:32:28;100872.97;;;16.17;79.92
81835;BME280;71272;52.166;4.498;2023-09-19T06:34:54;100879.72;;;16.40;77.98
81835;BME280;71272;52.166;4.498;2023-09-19T06:37:21;100862.72;;;16.40;76.99
81835;BME280;71272;52.166;4.498;2023-09-19T06:39:47;100885.25;;;16.93;75.31
81835;BME280;71272;52.166;4.498;2023-09-19T06:42:15;100876.88;;;17.02;74.16
81835;BME280;71272;52.166;4.498;2023-09-19T06:44:43;100884.56;;;17.18;74.32
81835;BME280;71272;52.166;4.498;2023-09-19T06:47:10;100881.25;;;17.48;71.94
81835;BME280;71272;52.166;4.498;2023-09-19T06:49:36;100878.34;;;17.78;70.50
81835;BME280;71272;52.166;4.498;2023-09-19T06:52:01;100884.97;;;18.00;68.22
81835;BME280;71272;52.166;4.498;2023-09-19T06:54:28;100886.72;;;18.83;65.69
81835;BME280;71272;52.166;4.498;2023-09-19T06:56:56;100897.00;;;19.03;65.39
81835;BME280;71272;52.166;4.498;2023-09-19T06:59:24;100902.09;;;19.52;62.71
81835;BME280;71272;52.166;4.498;2023-09-19T07:01:49;100892.84;;;19.17;64.66
81835;BME280;71272;52.166;4.498;2023-09-19T07:04:16;100878.38;;;19.24;63.46
81835;BME280;71272;52.166;4.498;2023-09-19T07:06:42;100885.94;;;18.83;64.31
81835;BME280;71272;52.166;4.498;2023-09-19T07:09:08;100882.94;;;18.74;64.86
81835;BME280;71272;52.166;4.498;2023-09-19T07:11:35;100865.81;;;18.17;65.88
81835;BME280;71272;52.166;4.498;2023-09-19T07:14:03;100894.66;;;18.89;65.96
81835;BME280;71272;52.166;4.498;2023-09-19T07:16:31;100891.13;;;18.84;63.98
81835;BME280;71272;52.166;4.498;2023-09-19T07:22:20;100879.88;;;18.21;67.19
81835;BME280;71272;52.166;4.498;2023-09-19T07:24:45;100891.66;;;17.81;68.10
81835;BME280;71272;52.166;4.498;2023-09-19T07:27:14;100872.16;;;18.21;69.03
81835;BME280;71272;52.166;4.498;2023-09-19T07:29:41;100902.44;;;17.86;77.54
81835;BME280;71272;52.166;4.498;2023-09-19T07:32:06;100901.16;;;17.74;81.39
81835;BME280;71272;52.166;4.498;2023-09-19T07:34:33;100897.34;;;18.32;78.41
81835;BME280;71272;52.166;4.498;2023-09-19T07:36:59;100896.09;;;18.07;79.83
81835;BME280;71272;52.166;4.498;2023-09-19T07:39:24;100899.13;;;17.33;84.68
81835;BME280;71272;52.166;4.498;2023-09-19T07:41:50;100917.41;;;16.70;89.21
81835;BME280;71272;52.166;4.498;2023-09-19T07:44:16;100912.19;;;16.84;91.38
81835;BME280;71272;52.166;4.498;2023-09-19T07:46:42;100905.41;;;17.53;89.44
81835;BME280;71272;52.166;4.498;2023-09-19T07:49:09;100897.63;;;17.57;87.55
81835;BME280;71272;52.166;4.498;2023-09-19T07:51:35;100912.50;;;17.03;92.31
81835;BME280;71272;52.166;4.498;2023-09-19T07:54:01;100914.28;;;17.26;93.08
81835;BME280;71272;52.166;4.498;2023-09-19T07:56:38;100892.34;;;17.97;87.79
81835;BME280;71272;52.166;4.498;2023-09-19T07:59:06;100878.00;;;17.63;89.33
81835;BME280;71272;52.166;4.498;2023-09-19T08:01:42;100900.31;;;18.15;87.91
81835;BME280;71272;52.166;4.498;2023-09-19T08:04:10;100877.91;;;18.56;85.16
81835;BME280;71272;52.166;4.498;2023-09-19T08:06:38;100901.84;;;18.55;83.92
81835;BME280;71272;52.166;4.498;2023-09-19T08:09:07;100857.00;;;17.73;86.54
81835;BME280;71272;52.166;4.498;2023-09-19T08:11:34;100864.56;;;17.50;88.71
81835;BME280;71272;52.166;4.498;2023-09-19T08:14:00;100869.84;;;17.23;89.81
81835;BME280;71272;52.166;4.498;2023-09-19T08:16:25;100875.50;;;17.23;90.89
81835;BME280;71272;52.166;4.498;2023-09-19T08:18:51;100857.25;;;17.66;88.90
81835;BME280;71272;52.166;4.498;2023-09-19T08:21:21;100873.06;;;18.05;86.83
81835;BME280;71272;52.166;4.498;2023-09-19T08:23:47;100866.28;;;17.48;88.21
81835;BME280;71272;52.166;4.498;2023-09-19T08:26:12;100875.16;;;17.63;88.05
81835;BME280;71272;52.166;4.498;2023-09-19T08:28:41;100872.16;;;17.83;88.46
81835;BME280;71272;52.166;4.498;2023-09-19T08:31:09;100872.72;;;17.36;88.63
81835;BME280;71272;52.166;4.498;2023-09-19T08:33:39;100873.28;;;17.30;90.91
81835;BME280;71272;52.166;4.498;2023-09-19T08:36:08;100888.09;;;17.64;89.50
81835;BME280;71272;52.166;4.498;2023-09-19T08:38:35;100878.13;;;17.72;86.92
81835;BME280;71272;52.166;4.498;2023-09-19T08:41:06;100890.63;;;17.33;89.54
81835;BME280;71272;52.166;4.498;2023-09-19T08:43:34;100877.38;;;17.13;91.01
81835;BME280;71272;52.166;4.498;2023-09-19T08:48:34;100879.31;;;16.71;93.30
81835;BME280;71272;52.166;4.498;2023-09-19T08:51:12;100878.44;;;16.74;93.75
81835;BME280;71272;52.166;4.498;2023-09-19T08:54:07;100894.28;;;16.55;94.80
81835;BME280;71272;52.166;4.498;2023-09-19T08:56:36;100865.03;;;16.29;96.38
81835;BME280;71272;52.166;4.498;2023-09-19T08:59:09;100899.94;;;16.55;96.17
81835;BME280;71272;52.166;4.498;2023-09-19T09:02:01;100898.91;;;16.49;96.34
81835;BME280;71272;52.166;4.498;2023-09-19T09:04:54;100877.91;;;15.97;100.00
81835;BME280;71272;52.166;4.498;2023-09-19T09:07:39;100868.44;;;15.67;100.00
81835;BME280;71272;52.166;4.498;2023-09-19T09:10:45;100890.38;;;16.98;100.00
81835;BME280;71272;52.166;4.498;2023-09-19T09:13:12;100881.00;;;17.43;98.62
81835;BME280;71272;52.166;4.498;2023-09-19T09:15:40;100871.72;;;17.42;96.06
81835;BME280;71272;52.166;4.498;2023-09-19T09:18:06;100865.56;;;17.31;95.59
81835;BME280;71272;52.166;4.498;2023-09-19T09:20:34;100844.88;;;17.60;93.77
81835;BME280;71272;52.166;4.498;2023-09-19T09:23:01;100849.19;;;17.51;91.56
81835;BME280;71272;52.166;4.498;2023-09-19T09:25:53;100872.06;;;17.44;91.80
81835;BME280;71272;52.166;4.498;2023-09-19T09:28:26;100859.41;;;17.74;90.77
81835;BME280;71272;52.166;4.498;2023-09-19T09:30:57;100845.44;;;17.55;90.41
81835;BME280;71272;52.166;4.498;2023-09-19T09:33:24;100862.13;;;17.65;89.52
81835;BME280;71272;52.166;4.498;2023-09-19T09:35:59;100859.84;;;17.73;90.11
81835;BME280;71272;52.166;4.498;2023-09-19T09:38:49;100845.94;;;18.04;88.13
81835;BME280;71272;52.166;4.498;2023-09-19T09:41:18;100857.16;;;18.08;87.65
81835;BME280;71272;52.166;4.498;2023-09-19T09:43:53;100846.03;;;18.26;86.86
81835;BME280;71272;52.166;4.498;2023-09-19T09:46:23;100855.31;;;18.39;86.22
81835;BME280;71272;52.166;4.498;2023-09-19T09:51:41;100854.69;;;17.84;87.34
81835;BME280;71272;52.166;4.498;2023-09-19T09:54:19;100843.22;;;17.88;88.32
81835;BME280;71272;52.166;4.498;2023-09-19T09:57:05;100839.34;;;17.94;88.14
81835;BME280;71272;52.166;4.498;2023-09-19T10:39:18;100780.66;;;18.17;85.65
81835;BME280;71272;52.166;4.498;2023-09-19T10:41:50;100794.94;;;18.13;87.41
81835;BME280;71272;52.166;4.498;2023-09-19T10:44:25;100788.53;;;17.87;88.69
81835;BME280;71272;52.166;4.498;2023-09-19T10:46:56;100793.03;;;17.72;90.05
81835;BME280;71272;52.166;4.498;2023-09-19T10:49:24;100820.88;;;17.90;89.78
81835;BME280;71272;52.166;4.498;2023-09-19T10:51:56;100791.59;;;17.93;89.58
81835;BME280;71272;52.166;4.498;2023-09-19T10:54:29;100815.78;;;18.45;87.68
81835;BME280;71272;52.166;4.498;2023-09-19T10:56:58;100797.31;;;18.62;85.64
81835;BME280;71272;52.166;4.498;2023-09-19T10:59:25;100791.16;;;18.77;85.63
81835;BME280;71272;52.166;4.498;2023-09-19T11:02:16;100795.84;;;18.93;83.62
81835;BME280;71272;52.166;4.498;2023-09-19T11:04:45;100791.69;;;18.84;84.69
81835;BME280;71272;52.166;4.498;2023-09-19T11:07:14;100788.38;;;18.51;86.41
81835;BME280;71272;52.166;4.498;2023-09-19T11:09:51;100793.84;;;18.46;87.39
81835;BME280;71272;52.166;4.498;2023-09-19T11:12:47;100792.31;;;18.19;88.21
81835;BME280;71272;52.166;4.498;2023-09-19T11:16:02;100793.03;;;17.97;88.88
81835;BME280;71272;52.166;4.498;2023-09-19T11:26:48;100787.91;;;18.05;90.99
81835;BME280;71272;52.166;4.498;2023-09-19T11:29:32;100777.41;;;17.93;90.68
81835;BME280;71272;52.166;4.498;2023-09-19T11:31:58;100782.72;;;17.65;92.96
81835;BME280;71272;52.166;4.498;2023-09-19T11:34:39;100767.63;;;17.56;95.39
81835;BME280;71272;52.166;4.498;2023-09-19T11:40:05;100770.03;;;17.83;92.57
81835;BME280;71272;52.166;4.498;2023-09-19T11:42:48;100767.38;;;17.75;92.14
81835;BME280;71272;52.166;4.498;2023-09-19T11:48:16;100714.75;;;17.74;95.02
81835;BME280;71272;52.166;4.498;2023-09-19T11:50:44;100749.34;;;17.95;95.59
81835;BME280;71272;52.166;4.498;2023-09-19T11:53:12;100763.88;;;17.97;93.86
81835;BME280;71272;52.166;4.498;2023-09-19T11:55:41;100787.72;;;18.00;94.64
81835;BME280;71272;52.166;4.498;2023-09-19T11:58:11;100783.59;;;17.62;98.53
81835;BME280;71272;52.166;4.498;2023-09-19T12:00:42;100805.19;;;17.60;100.00
81835;BME280;71272;52.166;4.498;2023-09-19T12:03:12;100789.56;;;17.26;100.00
81835;BME280;71272;52.166;4.498;2023-09-19T12:05:42;100771.94;;;16.93;100.00
81835;BME280;71272;52.166;4.498;2023-09-19T12:08:17;100762.31;;;16.74;100.00
81835;BME280;71272;52.166;4.498;2023-09-19T12:10:50;100779.25;;;16.61;100.00
81835;BME280;71272;52.166;4.498;2023-09-19T12:13:24;100765.44;;;16.63;100.00
81835;BME280;71272;52.166;4.498;2023-09-19T12:15:57;100780.38;;;17.09;100.00
81835;BME280;71272;52.166;4.498;2023-09-19T12:18:27;100773.50;;;17.36;100.00
81835;BME280;71272;52.166;4.498;2023-09-19T12:20:55;100751.03;;;17.54;100.00
81835;BME280;71272;52.166;4.498;2023-09-19T12:23:25;100765.47;;;17.85;100.00
81835;BME280;71272;52.166;4.498;2023-09-19T12:25:52;100792.00;;;18.17;100.00
81835;BME280;71272;52.166;4.498;2023-09-19T12:28:27;100766.78;;;18.19;99.14
81835;BME280;71272;52.166;4.498;2023-09-19T12:31:06;100784.22;;;18.43;97.54
81835;BME280;71272;52.166;4.498;2023-09-19T12:33:32;100787.34;;;18.58;96.17
81835;BME280;71272;52.166;4.498;2023-09-19T12:36:00;100777.03;;;18.51;95.29
81835;BME280;71272;52.166;4.498;2023-09-19T12:38:31;100756.75;;;18.62;93.35
81835;BME280;71272;52.166;4.498;2023-09-19T12:40:58;100760.38;;;18.97;91.02
81835;BME280;71272;52.166;4.498;2023-09-19T12:43:26;100745.16;;;19.13;90.10
81835;BME280;71272;52.166;4.498;2023-09-19T12:45:52;100768.84;;;18.88;90.12
81835;BME280;71272;52.166;4.498;2023-09-19T12:51:07;100767.38;;;18.83;91.81
81835;BME280;71272;52.166;4.498;2023-09-19T12:53:44;100766.25;;;18.81;91.49
81835;BME280;71272;52.166;4.498;2023-09-19T12:56:16;100742.50;;;18.53;89.94
81835;BME280;71272;52.166;4.498;2023-09-19T12:58:54;100743.31;;;18.40;91.08
81835;BME280;71272;52.166;4.498;2023-09-19T13:01:20;100741.41;;;18.37;91.57
81835;BME280;71272;52.166;4.498;2023-09-19T13:04:10;100762.13;;;18.25;93.49
81835;BME280;71272;52.166;4.498;2023-09-19T13:06:37;100761.63;;;18.39;93.64
81835;BME280;71272;52.166;4.498;2023-09-19T13:12:38;100755.38;;;18.45;91.82
81835;BME280;71272;52.166;4.498;2023-09-19T13:15:09;100771.28;;;18.42;95.97
81835;BME280;71272;52.166;4.498;2023-09-19T13:17:43;100777.03;;;18.04;99.71
81835;BME280;71272;52.166;4.498;2023-09-19T13:20:27;100811.31;;;17.96;100.00
81835;BME280;71272;52.166;4.498;2023-09-19T13:22:55;100764.56;;;18.01;100.00
81835;BME280;71272;52.166;4.498;2023-09-19T13:25:26;100752.50;;;18.23;98.64
81835;BME280;71272;52.166;4.498;2023-09-19T13:27:56;100735.28;;;18.04;99.52
81835;BME280;71272;52.166;4.498;2023-09-19T13:30:26;100745.94;;;18.00;99.30
81835;BME280;71272;52.166;4.498;2023-09-19T13:33:10;100757.97;;;18.04;98.83
81835;BME280;71272;52.166;4.498;2023-09-19T13:35:39;100726.22;;;17.84;100.00
81835;BME280;71272;52.166;4.498;2023-09-19T13:38:06;100775.44;;;17.77;100.00
81835;BME280;71272;52.166;4.498;2023-09-19T13:40:36;100793.75;;;17.21;100.00
81835;BME280;71272;52.166;4.498;2023-09-19T13:43:07;100778.81;;;16.79;100.00
81835;BME280;71272;52.166;4.498;2023-09-19T13:45:33;100792.72;;;16.57;100.00
81835;BME280;71272;52.166;4.498;2023-09-19T13:47:59;100797.31;;;16.67;100.00
81835;BME280;71272;52.166;4.498;2023-09-19T13:50:25;100768.16;;;16.67;100.00
81835;BME280;71272;52.166;4.498;2023-09-19T13:52:55;100752.69;;;16.71;100.00
81835;BME280;71272;52.166;4.498;2023-09-19T13:55:20;100759.34;;;16.94;100.00
81835;BME280;71272;52.166;4.498;2023-09-19T13:57:49;100755.84;;;16.90;100.00
81835;BME280;71272;52.166;4.498;2023-09-19T14:00:21;100764.03;;;17.00;100.00
81835;BME280;71272;52.166;4.498;2023-09-19T14:02:47;100770.03;;;17.02;100.00
81835;BME280;71272;52.166;4.498;2023-09-19T14:05:14;100778.16;;;16.88;100.00
81835;BME280;71272;52.166;4.498;2023-09-19T14:31:45;100754.81;;;17.38;100.00
81835;BME280;71272;52.166;4.498;2023-09-19T14:34:10;100757.50;;;17.29;100.00
81835;BME280;71272;52.166;4.498;2023-09-19T14:36:37;100736.28;;;17.08;100.00
81835;BME280;71272;52.166;4.498;2023-09-19T14:39:05;100760.66;;;17.18;100.00
81835;BME280;71272;52.166;4.498;2023-09-19T14:41:34;100747.38;;;17.15;100.00
81835;BME280;71272;52.166;4.498;2023-09-19T14:43:59;100757.38;;;17.20;100.00
81835;BME280;71272;52.166;4.498;2023-09-19T14:46:38;100720.19;;;17.18;100.00
81835;BME280;71272;52.166;4.498;2023-09-19T14:49:04;100739.78;;;17.12;100.00
81835;BME280;71272;52.166;4.498;2023-09-19T14:51:31;100749.78;;;17.17;100.00
81835;BME280;71272;52.166;4.498;2023-09-19T14:53:57;100732.66;;;17.20;100.00
81835;BME280;71272;52.166;4.498;2023-09-19T14:56:27;100781.41;;;17.15;100.00
81835;BME280;71272;52.166;4.498;2023-09-19T14:59:06;100749.47;;;16.85;100.00
81835;BME280;71272;52.166;4.498;2023-09-19T15:01:38;100772.25;;;16.65;100.00
81835;BME280;71272;52.166;4.498;2023-09-19T15:04:04;100790.03;;;16.66;100.00
81835;BME280;71272;52.166;4.498;2023-09-19T15:06:33;100776.13;;;16.72;100.00
81835;BME280;71272;52.166;4.498;2023-09-19T15:08:59;100764.13;;;16.68;100.00
81835;BME280;71272;52.166;4.498;2023-09-19T15:11:25;100776.59;;;16.70;100.00